createdAt,value
2022-11-17T00:00:06.872Z,2.27
2022-11-17T00:02:38.471Z,2.23
2022-11-17T00:05:07.579Z,2.23
2022-11-17T00:07:38.024Z,2.90
2022-11-17T00:10:08.060Z,4.87
2022-11-17T00:12:53.853Z,2.63
2022-11-17T00:15:22.969Z,1.63
2022-11-17T00:18:11.261Z,3.03
2022-11-17T00:20:58.074Z,3.07
2022-11-17T00:23:47.658Z,2.47
2022-11-17T00:26:17.689Z,1.27
2022-11-17T00:28:46.986Z,2.00
2022-11-17T00:31:33.501Z,1.90
2022-11-17T00:34:08.242Z,3.60
2022-11-17T00:36:42.622Z,2.40
2022-11-17T00:39:14.885Z,2.80
2022-11-17T00:41:43.862Z,2.63
2022-11-17T00:44:12.423Z,1.70
2022-11-17T00:46:41.829Z,2.33
2022-11-17T00:49:12.041Z,2.63
2022-11-17T00:51:41.328Z,1.90
2022-11-17T00:54:15.810Z,1.50
2022-11-17T00:56:44.153Z,4.77
2022-11-17T00:59:13.342Z,2.20
2022-11-17T01:01:43.841Z,2.37
2022-11-17T01:04:14.989Z,3.17
2022-11-17T01:06:46.638Z,2.93
2022-11-17T01:09:20.099Z,2.53
2022-11-17T01:11:49.720Z,5.03
2022-11-17T01:14:22.338Z,2.17
2022-11-17T01:16:51.298Z,2.00
2022-11-17T01:19:20.397Z,2.47
2022-11-17T01:21:49.135Z,2.63
2022-11-17T01:24:19.786Z,3.50
2022-11-17T01:26:50.588Z,1.80
2022-11-17T01:29:19.832Z,3.20
2022-11-17T01:31:52.321Z,2.67
2022-11-17T01:34:21.623Z,2.80
2022-11-17T01:37:07.863Z,3.13
2022-11-17T01:39:37.739Z,2.17
2022-11-17T01:42:15.281Z,3.90
2022-11-17T01:44:59.717Z,2.60
2022-11-17T01:47:41.344Z,3.20
2022-11-17T01:50:26.068Z,2.70
2022-11-17T01:53:00.092Z,3.60
2022-11-17T01:55:36.791Z,2.40
2022-11-17T01:58:12.746Z,2.97
2022-11-17T02:00:41.461Z,2.70
2022-11-17T02:03:11.311Z,2.73
2022-11-17T02:05:51.758Z,3.70
2022-11-17T02:08:24.586Z,3.80
2022-11-17T02:10:56.138Z,4.10
2022-11-17T02:13:25.548Z,3.80
2022-11-17T02:15:54.833Z,3.40
2022-11-17T02:18:23.526Z,3.30
2022-11-17T02:21:12.053Z,3.33
2022-11-17T02:24:43.002Z,4.37
2022-11-17T02:27:45.500Z,7.57
2022-11-17T02:30:18.455Z,4.17
2022-11-17T02:33:02.715Z,4.30
2022-11-17T02:35:41.945Z,3.83
2022-11-17T02:38:29.952Z,6.30
2022-11-17T02:41:09.604Z,3.03
2022-11-17T02:44:04.379Z,3.50
2022-11-17T02:46:45.086Z,3.60
2022-11-17T02:49:22.255Z,3.77
2022-11-17T02:51:55.644Z,3.67
2022-11-17T02:54:28.134Z,3.00
2022-11-17T02:56:57.033Z,3.10
2022-11-17T02:59:32.092Z,4.23
2022-11-17T03:02:36.602Z,3.43
2022-11-17T03:05:18.150Z,2.97
2022-11-17T03:08:15.580Z,2.60
2022-11-17T03:10:55.831Z,2.73
2022-11-17T03:13:41.154Z,3.80
2022-11-17T03:16:30.534Z,2.30
2022-11-17T03:19:10.217Z,2.70
2022-11-17T03:21:46.730Z,3.30
2022-11-17T03:24:22.654Z,3.10
2022-11-17T03:26:59.542Z,2.60
2022-11-17T03:29:33.914Z,2.57
2022-11-17T03:32:08.091Z,4.50
2022-11-17T03:34:44.927Z,3.40
2022-11-17T03:37:20.603Z,2.90
2022-11-17T03:39:55.172Z,2.13
2022-11-17T03:42:28.950Z,5.33
2022-11-17T03:45:03.762Z,2.60
2022-11-17T03:47:36.801Z,2.27
2022-11-17T03:50:15.166Z,2.73
2022-11-17T03:52:46.105Z,2.57
2022-11-17T03:55:15.652Z,2.03
2022-11-17T03:57:55.050Z,1.87
2022-11-17T04:00:23.956Z,2.30
2022-11-17T04:02:58.922Z,1.30
2022-11-17T04:05:27.911Z,2.10
2022-11-17T04:07:56.317Z,1.43
2022-11-17T04:10:26.827Z,1.33
2022-11-17T04:13:13.667Z,2.50
2022-11-17T04:15:57.421Z,4.20
2022-11-17T04:18:28.089Z,2.77
2022-11-17T04:20:58.423Z,3.57
2022-11-17T04:23:28.476Z,1.87
2022-11-17T04:26:15.673Z,2.73
2022-11-17T04:28:48.714Z,1.13
2022-11-17T04:31:20.594Z,1.03
2022-11-17T04:33:53.400Z,1.00
2022-11-17T04:36:25.164Z,2.77
2022-11-17T04:38:56.118Z,1.00
2022-11-17T04:41:45.369Z,1.93
2022-11-17T04:44:17.318Z,0.80
2022-11-17T04:46:47.429Z,0.97
2022-11-17T04:49:19.409Z,1.07
2022-11-17T04:51:49.850Z,1.43
2022-11-17T04:54:21.704Z,0.60
2022-11-17T04:56:50.125Z,0.73
2022-11-17T04:59:19.055Z,3.00
2022-11-17T05:01:47.650Z,1.47
2022-11-17T05:04:40.965Z,1.50
2022-11-17T05:07:10.090Z,1.20
2022-11-17T05:09:39.853Z,3.33
2022-11-17T05:12:27.345Z,1.97
2022-11-17T05:14:56.234Z,0.87
2022-11-17T05:17:23.597Z,1.00
2022-11-17T05:19:53.543Z,3.10
2022-11-17T05:22:42.096Z,2.43
2022-11-17T05:25:11.458Z,3.83
2022-11-17T05:27:40.409Z,1.90
2022-11-17T05:30:11.133Z,2.53
2022-11-17T05:32:39.838Z,1.87
2022-11-17T05:35:10.696Z,4.93
2022-11-17T05:37:39.177Z,12.33
2022-11-17T05:40:09.663Z,5.07
2022-11-17T05:42:38.197Z,8.40
2022-11-17T05:45:08.158Z,5.73
2022-11-17T05:47:37.097Z,3.43
2022-11-17T05:50:06.551Z,3.60
2022-11-17T05:52:36.193Z,5.37
2022-11-17T05:55:04.753Z,2.87
2022-11-17T05:57:34.859Z,2.90
2022-11-17T06:00:05.961Z,4.27
2022-11-17T06:02:50.459Z,4.73
2022-11-17T06:05:20.713Z,3.40
2022-11-17T06:07:52.004Z,2.30
2022-11-17T06:10:20.318Z,8.90
2022-11-17T06:12:49.869Z,7.43
2022-11-17T06:15:18.389Z,2.53
2022-11-17T06:17:54.056Z,2.13
2022-11-17T06:20:29.900Z,4.83
2022-11-17T06:23:05.585Z,3.50
2022-11-17T06:25:37.046Z,4.33
2022-11-17T06:28:12.031Z,3.87
2022-11-17T06:30:41.925Z,2.53
2022-11-17T06:33:15.549Z,4.47
2022-11-17T06:35:47.703Z,4.67
2022-11-17T06:38:18.170Z,7.70
2022-11-17T06:40:46.460Z,4.80
2022-11-17T06:43:15.677Z,3.60
2022-11-17T06:45:46.883Z,8.93
2022-11-17T06:48:18.388Z,6.83
2022-11-17T06:50:49.741Z,5.90
2022-11-17T06:53:19.672Z,5.00
2022-11-17T06:55:50.649Z,4.97
2022-11-17T06:58:19.098Z,4.67
2022-11-17T07:00:48.491Z,3.73
2022-11-17T07:03:16.808Z,4.97
2022-11-17T07:05:45.126Z,4.60
2022-11-17T07:08:14.336Z,5.27
2022-11-17T07:10:49.137Z,6.60
2022-11-17T07:13:18.463Z,2.97
2022-11-17T07:15:46.784Z,5.57
2022-11-17T07:18:17.333Z,2.20
2022-11-17T07:20:45.720Z,3.33
2022-11-17T07:23:15.492Z,3.10
2022-11-17T07:25:45.228Z,3.40
2022-11-17T07:28:15.415Z,4.47
2022-11-17T07:30:43.937Z,3.27
2022-11-17T07:33:12.972Z,4.67
2022-11-17T07:35:41.452Z,5.80
2022-11-17T07:38:10.219Z,6.23
2022-11-17T07:40:38.563Z,6.40
2022-11-17T07:43:08.645Z,5.87
2022-11-17T07:45:38.770Z,4.60
2022-11-17T07:48:08.085Z,5.43
2022-11-17T07:50:39.774Z,3.10
2022-11-17T07:53:08.612Z,2.70
2022-11-17T07:55:37.315Z,3.53
2022-11-17T07:58:07.373Z,3.43
2022-11-17T08:00:36.156Z,2.80
2022-11-17T08:03:06.241Z,2.17
2022-11-17T08:05:43.063Z,4.43
2022-11-17T08:08:16.301Z,2.40
2022-11-17T08:10:46.237Z,2.97
2022-11-17T08:13:16.307Z,2.67
2022-11-17T08:15:44.913Z,1.83
2022-11-17T08:18:13.922Z,2.40
2022-11-17T08:20:42.429Z,2.17
2022-11-17T08:23:10.992Z,1.67
2022-11-17T08:25:40.094Z,2.47
2022-11-17T08:28:08.534Z,2.33
2022-11-17T08:30:38.215Z,2.93
2022-11-17T08:33:07.318Z,1.70
2022-11-17T08:35:37.629Z,1.03
2022-11-17T08:38:06.936Z,1.93
2022-11-17T08:40:35.520Z,4.17
2022-11-17T08:43:03.923Z,4.03
2022-11-17T08:45:32.797Z,2.10
2022-11-17T08:48:02.915Z,4.90
2022-11-17T08:50:31.329Z,2.80
2022-11-17T08:52:59.818Z,5.13
2022-11-17T08:55:28.155Z,3.87
2022-11-17T08:57:56.736Z,3.93
2022-11-17T09:00:25.283Z,5.47
2022-11-17T09:02:54.019Z,5.37
2022-11-17T09:05:25.453Z,1.77
2022-11-17T09:07:54.126Z,2.37
2022-11-17T09:10:23.299Z,3.37
2022-11-17T09:12:52.288Z,3.67
2022-11-17T09:15:22.153Z,5.33
2022-11-17T09:17:50.864Z,2.77
2022-11-17T09:20:21.054Z,4.80
2022-11-17T09:22:50.911Z,5.07
2022-11-17T09:25:19.509Z,4.00
2022-11-17T09:27:53.039Z,7.20
2022-11-17T09:30:22.248Z,5.30
2022-11-17T09:32:51.839Z,4.13
2022-11-17T09:35:20.624Z,4.27
2022-11-17T09:37:50.707Z,3.70
2022-11-17T09:40:21.204Z,3.67
2022-11-17T09:42:50.349Z,4.77
2022-11-17T09:45:27.458Z,2.97
2022-11-17T09:48:33.477Z,3.73
2022-11-17T09:50:58.222Z,3.90
2022-11-17T09:53:37.997Z,4.57
2022-11-17T09:56:11.595Z,2.47
2022-11-17T09:58:47.450Z,2.03
2022-11-17T10:01:19.039Z,6.83
2022-11-17T10:03:51.082Z,5.13
2022-11-17T10:06:23.869Z,4.43
2022-11-17T10:09:03.645Z,5.40
2022-11-17T10:11:36.061Z,5.10
2022-11-17T10:14:14.171Z,6.27
2022-11-17T10:16:46.385Z,8.67
2022-11-17T10:19:20.600Z,7.07
2022-11-17T10:21:55.768Z,5.37
2022-11-17T10:24:38.367Z,3.83
2022-11-17T10:27:20.247Z,4.33
2022-11-17T10:30:00.396Z,5.37
2022-11-17T10:32:30.679Z,3.37
2022-11-17T10:35:16.765Z,5.53
2022-11-17T10:37:55.567Z,5.73
2022-11-17T10:40:28.247Z,6.33
2022-11-17T10:43:24.245Z,6.30
2022-11-17T10:45:58.198Z,5.27
2022-11-17T10:48:30.849Z,10.23
2022-11-17T10:51:01.949Z,3.53
2022-11-17T10:53:45.140Z,12.23
2022-11-17T10:56:21.718Z,9.27
2022-11-17T10:59:02.945Z,8.53
2022-11-17T11:01:35.408Z,8.67
2022-11-17T11:04:06.889Z,15.90
2022-11-17T11:06:36.535Z,16.77
2022-11-17T11:09:13.221Z,7.97
2022-11-17T11:11:49.677Z,4.77
2022-11-17T11:14:28.823Z,5.53
2022-11-17T11:16:57.264Z,15.93
2022-11-17T11:19:25.999Z,5.70
2022-11-17T11:22:29.153Z,3.17
2022-11-17T11:25:11.472Z,2.77
2022-11-17T11:28:01.688Z,4.47
2022-11-17T11:30:38.568Z,7.40
2022-11-17T11:33:26.586Z,2.67
2022-11-17T11:36:15.415Z,1.97
2022-11-17T11:38:58.061Z,1.93
2022-11-17T11:41:56.203Z,1.58
2022-11-17T11:44:46.787Z,3.67
2022-11-17T11:47:38.643Z,3.67
2022-11-17T11:50:17.878Z,3.20
2022-11-17T11:52:52.205Z,3.90
2022-11-17T11:55:26.481Z,3.83
2022-11-17T11:58:03.685Z,5.95
2022-11-17T12:00:35.708Z,4.35
2022-11-17T12:03:20.885Z,7.68
2022-11-17T12:06:20.686Z,5.57
2022-11-17T12:09:03.390Z,5.13
2022-11-17T12:11:51.451Z,9.40
2022-11-17T12:14:20.353Z,5.53
2022-11-17T12:16:50.271Z,8.00
2022-11-17T12:20:09.214Z,5.07
2022-11-17T12:23:19.454Z,10.90
2022-11-17T12:25:54.187Z,8.40
2022-11-17T12:28:36.503Z,7.13
2022-11-17T12:31:10.343Z,9.50
2022-11-17T12:34:25.646Z,7.37
2022-11-17T12:37:26.969Z,6.20
2022-11-17T12:40:07.926Z,7.40
2022-11-17T12:42:38.574Z,5.23
2022-11-17T12:45:12.902Z,7.00
2022-11-17T12:47:48.121Z,7.27
2022-11-17T12:51:00.563Z,5.93
2022-11-17T12:53:43.337Z,5.77
2022-11-17T12:56:42.309Z,5.83
2022-11-17T12:59:58.647Z,5.47
2022-11-17T13:02:47.327Z,5.47
2022-11-17T13:05:23.401Z,7.43
2022-11-17T13:08:22.600Z,7.93
2022-11-17T13:11:05.426Z,3.03
2022-11-17T13:13:36.999Z,9.37
2022-11-17T13:16:13.606Z,3.20
2022-11-17T13:18:44.707Z,7.07
2022-11-17T13:21:30.630Z,5.70
2022-11-17T13:24:01.615Z,6.93
2022-11-17T13:26:37.655Z,6.83
2022-11-17T13:29:09.530Z,4.43
2022-11-17T13:31:37.932Z,6.03
2022-11-17T13:34:15.235Z,5.40
2022-11-17T13:36:54.400Z,5.20
2022-11-17T13:39:27.525Z,7.60
2022-11-17T13:41:57.957Z,5.53
2022-11-17T13:44:29.599Z,7.80
2022-11-17T13:46:58.648Z,7.90
2022-11-17T13:49:35.375Z,4.83
2022-11-17T13:52:05.122Z,5.47
2022-11-17T13:54:36.218Z,7.30
2022-11-17T13:57:10.166Z,9.20
2022-11-17T13:59:40.482Z,8.37
2022-11-17T14:02:29.546Z,8.90
2022-11-17T14:05:27.375Z,5.33
2022-11-17T14:07:58.661Z,6.47
2022-11-17T14:10:37.623Z,6.00
2022-11-17T14:13:30.606Z,7.70
2022-11-17T14:16:01.965Z,6.33
2022-11-17T14:18:36.954Z,7.70
2022-11-17T14:21:09.439Z,7.07
2022-11-17T14:23:38.549Z,9.57
2022-11-17T14:26:17.891Z,8.17
2022-11-17T14:28:46.824Z,9.53
2022-11-17T14:31:15.838Z,7.43
2022-11-17T14:33:44.487Z,8.27
2022-11-17T14:36:18.056Z,9.87
2022-11-17T14:38:47.899Z,10.17
2022-11-17T14:41:19.288Z,9.00
2022-11-17T14:43:49.161Z,9.73
2022-11-17T14:46:24.343Z,13.87
2022-11-17T14:48:53.657Z,11.43
2022-11-17T14:51:23.568Z,16.07
2022-11-17T14:53:52.422Z,9.33
2022-11-17T14:56:25.688Z,13.00
2022-11-17T14:58:59.990Z,9.90
2022-11-17T15:01:31.503Z,8.97
2022-11-17T15:04:27.262Z,8.57
2022-11-17T15:06:52.867Z,7.93
2022-11-17T15:09:21.788Z,14.20
2022-11-17T15:11:53.157Z,8.67
2022-11-17T15:14:21.509Z,9.67
2022-11-17T15:16:50.748Z,6.37
2022-11-17T15:19:19.337Z,10.80
2022-11-17T15:21:48.349Z,9.50
2022-11-17T15:24:17.930Z,10.10
2022-11-17T15:26:47.368Z,11.30
2022-11-17T15:29:17.606Z,5.40
2022-11-17T15:31:47.215Z,6.60
2022-11-17T15:34:19.925Z,12.13
2022-11-17T15:36:49.546Z,13.23
2022-11-17T15:39:18.546Z,10.60
2022-11-17T15:41:47.204Z,10.17
2022-11-17T15:44:19.103Z,10.60
2022-11-17T15:46:48.106Z,7.03
2022-11-17T15:49:18.065Z,6.87
2022-11-17T15:51:46.876Z,8.43
2022-11-17T15:54:20.322Z,8.87
2022-11-17T15:56:49.492Z,10.67
2022-11-17T15:59:19.618Z,12.47
2022-11-17T16:01:48.879Z,15.80
2022-11-17T16:04:17.355Z,27.63
2022-11-17T16:06:47.970Z,29.10
2022-11-17T16:09:17.224Z,29.03
2022-11-17T16:11:46.056Z,19.43
2022-11-17T16:14:15.092Z,17.67
2022-11-17T16:16:48.085Z,12.90
2022-11-17T16:19:16.789Z,12.03
2022-11-17T16:21:45.824Z,8.77
2022-11-17T16:24:15.264Z,11.20
2022-11-17T16:26:45.245Z,10.27
2022-11-17T16:29:13.812Z,10.93
2022-11-17T16:31:42.377Z,7.67
2022-11-17T16:34:17.949Z,10.53
2022-11-17T16:36:47.110Z,15.83
2022-11-17T16:39:18.192Z,18.90
2022-11-17T16:41:50.534Z,21.23
2022-11-17T16:44:20.379Z,15.17
2022-11-17T16:46:50.422Z,12.93
2022-11-17T16:49:21.079Z,15.80
2022-11-17T16:51:51.259Z,15.43
2022-11-17T16:54:20.335Z,17.03
2022-11-17T16:56:49.020Z,19.83
2022-11-17T16:59:18.003Z,20.37
2022-11-17T17:01:47.686Z,15.97
2022-11-17T17:04:16.969Z,40.50
2022-11-17T17:06:46.991Z,23.57
2022-11-17T17:09:18.723Z,16.03
2022-11-17T17:11:48.871Z,7.63
2022-11-17T17:14:19.961Z,8.93
2022-11-17T17:16:48.613Z,11.43
2022-11-17T17:19:18.436Z,9.77
2022-11-17T17:21:48.350Z,8.53
2022-11-17T17:24:17.446Z,5.23
2022-11-17T17:26:46.040Z,9.47
2022-11-17T17:29:16.186Z,6.10
2022-11-17T17:31:44.724Z,7.97
2022-11-17T17:34:21.107Z,8.43
2022-11-17T17:36:51.376Z,6.53
2022-11-17T17:39:20.204Z,5.30
2022-11-17T17:41:48.760Z,5.80
2022-11-17T17:44:19.811Z,7.90
2022-11-17T17:46:49.410Z,19.80
2022-11-17T17:49:20.185Z,7.53
2022-11-17T17:51:50.307Z,14.00
2022-11-17T17:54:24.165Z,14.30
2022-11-17T17:56:53.073Z,14.43
2022-11-17T17:59:22.718Z,5.37
2022-11-17T18:01:51.559Z,7.83
2022-11-17T18:04:20.180Z,4.43
2022-11-17T18:06:50.173Z,8.50
2022-11-17T18:09:20.314Z,7.73
2022-11-17T18:11:51.170Z,9.57
2022-11-17T18:14:24.658Z,8.87
2022-11-17T18:16:54.700Z,9.80
2022-11-17T18:19:27.104Z,10.00
2022-11-17T18:21:59.046Z,8.20
2022-11-17T18:24:27.815Z,12.93
2022-11-17T18:26:56.061Z,9.57
2022-11-17T18:29:26.130Z,15.63
2022-11-17T18:31:54.748Z,15.07
2022-11-17T18:34:25.621Z,14.03
2022-11-17T18:36:57.800Z,11.90
2022-11-17T18:39:28.353Z,10.57
2022-11-17T18:41:56.657Z,13.30
2022-11-17T18:44:25.363Z,14.23
2022-11-17T18:46:58.241Z,11.30
2022-11-17T18:49:31.146Z,9.97
2022-11-17T18:52:02.081Z,10.83
2022-11-17T18:54:30.667Z,11.37
2022-11-17T18:57:00.436Z,15.37
2022-11-17T18:59:29.084Z,10.90
2022-11-17T19:01:57.961Z,8.20
2022-11-17T19:04:26.691Z,6.03
2022-11-17T19:06:55.229Z,4.77
2022-11-17T19:09:24.896Z,4.07
2022-11-17T19:11:54.221Z,5.67
2022-11-17T19:14:23.637Z,5.63
2022-11-17T19:16:51.931Z,7.20
2022-11-17T19:19:20.647Z,13.30
2022-11-17T19:21:48.879Z,7.97
2022-11-17T19:24:18.270Z,3.37
2022-11-17T19:26:48.225Z,3.40
2022-11-17T19:29:17.903Z,7.67
2022-11-17T19:31:47.084Z,4.33
2022-11-17T19:34:16.347Z,4.20
2022-11-17T19:36:45.339Z,3.50
2022-11-17T19:39:15.544Z,1.93
2022-11-17T19:41:45.184Z,2.70
2022-11-17T19:44:15.923Z,2.17
2022-11-17T19:46:44.298Z,2.83
2022-11-17T19:49:14.005Z,5.67
2022-11-17T19:51:43.141Z,2.73
2022-11-17T19:54:14.103Z,5.10
2022-11-17T19:56:42.888Z,4.73
2022-11-17T19:59:15.974Z,1.10
2022-11-17T20:01:47.123Z,5.30
2022-11-17T20:04:15.719Z,4.47
2022-11-17T20:06:45.008Z,5.67
2022-11-17T20:09:16.246Z,2.53
2022-11-17T20:11:44.929Z,2.47
2022-11-17T20:14:14.563Z,1.10
2022-11-17T20:16:42.940Z,1.20
2022-11-17T20:19:14.169Z,1.30
2022-11-17T20:21:42.768Z,1.67
2022-11-17T20:24:11.419Z,2.00
2022-11-17T20:26:41.040Z,2.87
2022-11-17T20:29:09.972Z,4.43
2022-11-17T20:31:38.960Z,3.13
2022-11-17T20:34:07.577Z,3.33
2022-11-17T20:36:37.629Z,2.10
2022-11-17T20:39:08.152Z,2.73
2022-11-17T20:41:36.764Z,5.77
2022-11-17T20:44:05.874Z,2.10
2022-11-17T20:46:34.139Z,4.20
2022-11-17T20:49:02.480Z,3.60
2022-11-17T20:51:30.820Z,1.90
2022-11-17T20:54:00.938Z,2.87
2022-11-17T20:56:29.408Z,5.77
2022-11-17T20:58:57.805Z,4.53
2022-11-17T21:01:27.253Z,3.23
2022-11-17T21:03:55.569Z,11.27
2022-11-17T21:06:24.696Z,11.63
2022-11-17T21:08:53.941Z,6.03
2022-11-17T21:11:44.123Z,13.77
2022-11-17T21:14:14.767Z,6.93
2022-11-17T21:16:46.030Z,4.17
2022-11-17T21:19:15.972Z,5.63
2022-11-17T21:21:46.300Z,5.80
2022-11-17T21:24:14.562Z,4.03
2022-11-17T21:26:44.405Z,12.77
2022-11-17T21:29:13.687Z,11.63
2022-11-17T21:31:41.966Z,4.90
2022-11-17T21:34:17.541Z,5.40
2022-11-17T21:36:46.378Z,6.83
2022-11-17T21:39:18.643Z,2.50
2022-11-17T21:41:49.276Z,2.40
2022-11-17T21:44:18.077Z,4.77
2022-11-17T21:46:48.165Z,3.77
2022-11-17T21:49:16.939Z,11.37
2022-11-17T21:51:46.157Z,3.77
2022-11-17T21:54:14.848Z,3.63
2022-11-17T21:56:43.106Z,3.73
2022-11-17T21:59:15.151Z,2.47
2022-11-17T22:01:43.957Z,2.67
2022-11-17T22:04:13.469Z,3.10
2022-11-17T22:06:42.252Z,2.97
2022-11-17T22:09:14.317Z,3.87
2022-11-17T22:11:44.011Z,6.17
2022-11-17T22:14:16.131Z,3.23
2022-11-17T22:16:47.510Z,4.60
2022-11-17T22:19:18.387Z,3.57
2022-11-17T22:21:49.790Z,4.00
2022-11-17T22:24:19.662Z,4.97
2022-11-17T22:26:48.509Z,3.70
2022-11-17T22:29:21.898Z,3.43
2022-11-17T22:31:50.896Z,3.67
2022-11-17T22:34:20.689Z,5.20
2022-11-17T22:36:49.417Z,4.53
2022-11-17T22:39:18.352Z,4.33
2022-11-17T22:41:47.400Z,4.00
2022-11-17T22:44:18.699Z,3.93
2022-11-17T22:46:47.694Z,3.80
2022-11-17T22:49:16.249Z,2.87
2022-11-17T22:52:04.939Z,6.10
2022-11-17T22:54:34.565Z,3.97
2022-11-17T22:57:03.366Z,5.13
2022-11-17T22:59:34.346Z,2.70
2022-11-17T23:02:02.847Z,3.23
2022-11-17T23:04:31.422Z,2.20
2022-11-17T23:07:00.270Z,5.90
2022-11-17T23:09:28.624Z,6.00
2022-11-17T23:11:57.956Z,3.37
2022-11-17T23:14:26.341Z,3.63
2022-11-17T23:16:56.635Z,2.20
2022-11-17T23:19:25.949Z,3.83
2022-11-17T23:21:54.242Z,4.33
2022-11-17T23:24:23.327Z,3.17
2022-11-17T23:26:51.638Z,3.57
2022-11-17T23:29:20.040Z,3.77
2022-11-17T23:31:48.622Z,5.20
2022-11-17T23:34:18.516Z,5.40
2022-11-17T23:36:47.433Z,3.23
2022-11-17T23:39:16.603Z,3.87
2022-11-17T23:41:45.530Z,3.50
2022-11-17T23:44:14.173Z,1.73
2022-11-17T23:46:43.105Z,1.40
2022-11-17T23:49:12.221Z,1.20
2022-11-17T23:51:42.118Z,3.90
2022-11-17T23:54:14.147Z,2.90
2022-11-17T23:56:42.794Z,2.97
2022-11-17T23:59:11.633Z,1.93
